Impacts TAF Board INFO
FOR SITUATIONAL AWARENESS. NOT TO BE USED FOR FLIGHT PLANNING PURPOSES.
IDs:

KEWR - Newark Intl, NJ, US

Issued at 0106 UTC 18 Aug 2018
Updated at 0126 UTC 18 Aug 2018
Potential Impact None Slight Moderate High
Time<<19/02Z 19/03Z 19/04Z 19/05Z 19/06Z 19/07Z 19/08Z 19/09Z 19/10Z 19/11Z 19/12Z 19/13Z 19/14Z
Type PRVL
  [PRB30]  
PRVL
  [PRB30]  
PRVL
  [PRB30]  
PRVL
  [PRB30]  
VIS >6
  [2]  
>6
  [2]  
>6
  [2]  
>6
  [2]  
CIG 150
  [40]  
150
  [40]  
150
  [40]  
150
  [40]  
Cover BKN
  [OVC]  
BKN
  [OVC]  
BKN
  [OVC]  
BKN
  [OVC]  
FltCat VFR
  [IFR]  
VFR
  [IFR]  
VFR
  [IFR]  
VFR
  [IFR]  
WX VCSH
  [TS]  
VCSH
  [TS]  
VCSH
  [TS]  
VCSH
  [TS]  
WDir 280
[280]
280
[280]
280
[280]
280
[280]
WSpd 8
  [8]  
8
  [8]  
8
  [8]  
8
  [8]  
WGst --
  [--]  
--
  [--]  
--
  [--]  
--
  [--]  

Raw TAF
KEWR 180106Z 1801/1906 18008KT P6SM BKN050
  FM180130 27025G40KT 2SM +TSRA BKN005CB
  FM180230 20015G25KT P6SM VCTS BKN050CB
  FM180300 20005KT P6SM SHRA SCT025 BKN040
  FM180600 22005KT P6SM VCTS BKN040CB
  FM181200 23006KT P6SM VCTS BKN040CB
  FM190000 28008KT P6SM VCSH SCT060 BKN150
  PROB30 1900/1906 2SM TS OVC040CB


METAR Board
Radar Display
Forecast Discussion

FOR SITUATIONAL AWARENESS. NOT TO BE USED FOR FLIGHT PLANNING PURPOSES.